sensor_id;sensor_type;location;lat;lon;timestamp;P1;durP1;ratioP1;P2;durP2;ratioP2
3999;SDS011;2014;53.604;10.112;2022-11-20T18:02:43;4.50;;;4.30;;
3999;SDS011;2014;53.604;10.112;2022-11-20T18:05:10;4.40;;;4.20;;
3999;SDS011;2014;53.604;10.112;2022-11-20T18:07:37;4.90;;;4.43;;
3999;SDS011;2014;53.604;10.112;2022-11-20T18:10:05;6.40;;;5.90;;
3999;SDS011;2014;53.604;10.112;2022-11-20T18:12:33;8.40;;;7.60;;
3999;SDS011;2014;53.604;10.112;2022-11-20T18:15:00;9.27;;;8.50;;
3999;SDS011;2014;53.604;10.112;2022-11-20T18:17:27;9.43;;;8.27;;
3999;SDS011;2014;53.604;10.112;2022-11-20T18:19:56;8.17;;;7.47;;
3999;SDS011;2014;53.604;10.112;2022-11-20T18:22:23;8.43;;;7.57;;
3999;SDS011;2014;53.604;10.112;2022-11-20T18:24:50;10.00;;;9.10;;
3999;SDS011;2014;53.604;10.112;2022-11-20T18:27:19;11.93;;;9.87;;
3999;SDS011;2014;53.604;10.112;2022-11-20T18:29:47;11.70;;;10.40;;
3999;SDS011;2014;53.604;10.112;2022-11-20T18:32:16;11.77;;;8.90;;
3999;SDS011;2014;53.604;10.112;2022-11-20T18:34:43;9.53;;;8.63;;
3999;SDS011;2014;53.604;10.112;2022-11-20T18:37:12;10.37;;;9.37;;
3999;SDS011;2014;53.604;10.112;2022-11-20T18:39:40;9.47;;;8.67;;
3999;SDS011;2014;53.604;10.112;2022-11-20T18:42:09;19.20;;;11.47;;
3999;SDS011;2014;53.604;10.112;2022-11-20T18:44:55;16.03;;;12.30;;
3999;SDS011;2014;53.604;10.112;2022-11-20T18:47:25;10.77;;;9.67;;
3999;SDS011;2014;53.604;10.112;2022-11-20T18:49:54;10.70;;;9.60;;
3999;SDS011;2014;53.604;10.112;2022-11-20T18:52:24;10.43;;;9.43;;
3999;SDS011;2014;53.604;10.112;2022-11-20T18:54:52;10.47;;;9.53;;
3999;SDS011;2014;53.604;10.112;2022-11-20T18:57:26;13.77;;;10.00;;
3999;SDS011;2014;53.604;10.112;2022-11-20T18:59:54;11.33;;;10.07;;
3999;SDS011;2014;53.604;10.112;2022-11-20T19:02:23;10.40;;;9.33;;
3999;SDS011;2014;53.604;10.112;2022-11-20T19:04:52;11.93;;;9.47;;
3999;SDS011;2014;53.604;10.112;2022-11-20T19:07:19;11.77;;;9.67;;
3999;SDS011;2014;53.604;10.112;2022-11-20T19:09:48;12.17;;;10.97;;
3999;SDS011;2014;53.604;10.112;2022-11-20T19:12:16;13.60;;;12.20;;
3999;SDS011;2014;53.604;10.112;2022-11-20T19:14:44;14.03;;;12.63;;
3999;SDS011;2014;53.604;10.112;2022-11-20T19:17:12;12.50;;;9.80;;
3999;SDS011;2014;53.604;10.112;2022-11-20T19:19:41;12.70;;;8.90;;
3999;SDS011;2014;53.604;10.112;2022-11-20T19:22:09;11.70;;;8.67;;
3999;SDS011;2014;53.604;10.112;2022-11-20T19:24:36;10.97;;;9.87;;
3999;SDS011;2014;53.604;10.112;2022-11-20T19:27:06;11.03;;;9.80;;
3999;SDS011;2014;53.604;10.112;2022-11-20T19:29:34;9.80;;;8.80;;
3999;SDS011;2014;53.604;10.112;2022-11-20T19:32:02;10.60;;;8.80;;
3999;SDS011;2014;53.604;10.112;2022-11-20T19:34:30;9.50;;;8.10;;
3999;SDS011;2014;53.604;10.112;2022-11-20T19:36:57;11.10;;;9.13;;
3999;SDS011;2014;53.604;10.112;2022-11-20T19:39:25;9.73;;;7.83;;
3999;SDS011;2014;53.604;10.112;2022-11-20T19:41:52;8.77;;;8.00;;
3999;SDS011;2014;53.604;10.112;2022-11-20T19:44:21;9.97;;;9.00;;
3999;SDS011;2014;53.604;10.112;2022-11-20T19:46:48;8.77;;;7.97;;
3999;SDS011;2014;53.604;10.112;2022-11-20T19:49:16;9.27;;;8.10;;
3999;SDS011;2014;53.604;10.112;2022-11-20T19:51:44;12.13;;;8.73;;
3999;SDS011;2014;53.604;10.112;2022-11-20T19:54:11;9.00;;;8.13;;
3999;SDS011;2014;53.604;10.112;2022-11-20T19:56:39;10.10;;;8.20;;
3999;SDS011;2014;53.604;10.112;2022-11-20T19:59:06;12.50;;;9.93;;
3999;SDS011;2014;53.604;10.112;2022-11-20T20:01:35;9.17;;;8.47;;
3999;SDS011;2014;53.604;10.112;2022-11-20T20:04:02;9.87;;;8.83;;
3999;SDS011;2014;53.604;10.112;2022-11-20T20:06:31;10.83;;;9.40;;
3999;SDS011;2014;53.604;10.112;2022-11-20T20:08:59;10.50;;;9.50;;
3999;SDS011;2014;53.604;10.112;2022-11-20T20:11:27;9.47;;;8.57;;
3999;SDS011;2014;53.604;10.112;2022-11-20T20:13:54;11.93;;;9.37;;
3999;SDS011;2014;53.604;10.112;2022-11-20T20:16:23;8.67;;;7.97;;
3999;SDS011;2014;53.604;10.112;2022-11-20T20:18:54;9.37;;;8.57;;
3999;SDS011;2014;53.604;10.112;2022-11-20T20:21:25;9.80;;;8.80;;
3999;SDS011;2014;53.604;10.112;2022-11-20T20:23:55;8.47;;;7.77;;
3999;SDS011;2014;53.604;10.112;2022-11-20T20:26:22;8.27;;;7.67;;
3999;SDS011;2014;53.604;10.112;2022-11-20T20:28:50;8.83;;;7.97;;
3999;SDS011;2014;53.604;10.112;2022-11-20T20:31:18;8.50;;;7.80;;
3999;SDS011;2014;53.604;10.112;2022-11-20T20:33:46;12.40;;;8.40;;
3999;SDS011;2014;53.604;10.112;2022-11-20T20:36:15;9.40;;;8.63;;
3999;SDS011;2014;53.604;10.112;2022-11-20T20:38:43;9.63;;;8.70;;
3999;SDS011;2014;53.604;10.112;2022-11-20T20:41:10;9.57;;;8.77;;
3999;SDS011;2014;53.604;10.112;2022-11-20T20:43:38;10.57;;;9.20;;
3999;SDS011;2014;53.604;10.112;2022-11-20T20:46:23;9.77;;;8.70;;
3999;SDS011;2014;53.604;10.112;2022-11-20T20:48:50;10.90;;;9.07;;
3999;SDS011;2014;53.604;10.112;2022-11-20T20:51:19;9.43;;;8.53;;
3999;SDS011;2014;53.604;10.112;2022-11-20T20:53:46;11.47;;;9.03;;
3999;SDS011;2014;53.604;10.112;2022-11-20T20:56:14;8.37;;;7.60;;
3999;SDS011;2014;53.604;10.112;2022-11-20T20:58:41;10.57;;;8.40;;
3999;SDS011;2014;53.604;10.112;2022-11-20T21:01:09;8.50;;;7.70;;
3999;SDS011;2014;53.604;10.112;2022-11-20T21:03:37;8.90;;;8.20;;
3999;SDS011;2014;53.604;10.112;2022-11-20T21:06:05;7.90;;;7.20;;
3999;SDS011;2014;53.604;10.112;2022-11-20T21:08:35;10.53;;;8.60;;
3999;SDS011;2014;53.604;10.112;2022-11-20T21:11:03;18.90;;;10.63;;
3999;SDS011;2014;53.604;10.112;2022-11-20T21:13:31;10.90;;;9.57;;
3999;SDS011;2014;53.604;10.112;2022-11-20T21:15:58;32.17;;;10.10;;
3999;SDS011;2014;53.604;10.112;2022-11-20T21:18:26;11.90;;;10.53;;
3999;SDS011;2014;53.604;10.112;2022-11-20T21:20:54;9.37;;;8.57;;
3999;SDS011;2014;53.604;10.112;2022-11-20T21:23:40;9.77;;;8.00;;
3999;SDS011;2014;53.604;10.112;2022-11-20T21:26:07;9.57;;;8.67;;
3999;SDS011;2014;53.604;10.112;2022-11-20T21:28:35;14.40;;;7.03;;
3999;SDS011;2014;53.604;10.112;2022-11-20T21:31:03;9.93;;;8.87;;
3999;SDS011;2014;53.604;10.112;2022-11-20T21:33:34;8.97;;;8.07;;
3999;SDS011;2014;53.604;10.112;2022-11-20T21:36:02;9.70;;;8.20;;
3999;SDS011;2014;53.604;10.112;2022-11-20T21:38:29;10.13;;;9.27;;
3999;SDS011;2014;53.604;10.112;2022-11-20T21:40:58;10.00;;;8.90;;
3999;SDS011;2014;53.604;10.112;2022-11-20T21:43:26;11.10;;;9.43;;
3999;SDS011;2014;53.604;10.112;2022-11-20T21:45:58;10.80;;;9.60;;
3999;SDS011;2014;53.604;10.112;2022-11-20T21:48:26;11.60;;;10.10;;
3999;SDS011;2014;53.604;10.112;2022-11-20T21:50:54;10.87;;;9.77;;
3999;SDS011;2014;53.604;10.112;2022-11-20T21:53:21;11.07;;;9.93;;
3999;SDS011;2014;53.604;10.112;2022-11-20T21:55:52;14.43;;;11.00;;
3999;SDS011;2014;53.604;10.112;2022-11-20T21:58:21;12.30;;;10.10;;
3999;SDS011;2014;53.604;10.112;2022-11-20T22:00:48;11.63;;;10.50;;
3999;SDS011;2014;53.604;10.112;2022-11-20T22:03:16;11.93;;;10.73;;
3999;SDS011;2014;53.604;10.112;2022-11-20T22:05:51;13.83;;;10.63;;
3999;SDS011;2014;53.604;10.112;2022-11-20T22:08:18;14.10;;;10.77;;
3999;SDS011;2014;53.604;10.112;2022-11-20T22:10:51;15.60;;;11.03;;
3999;SDS011;2014;53.604;10.112;2022-11-20T22:13:20;15.07;;;11.40;;
3999;SDS011;2014;53.604;10.112;2022-11-20T22:16:01;17.60;;;11.20;;
3999;SDS011;2014;53.604;10.112;2022-11-20T22:18:28;13.30;;;10.50;;
3999;SDS011;2014;53.604;10.112;2022-11-20T22:20:56;13.97;;;11.13;;
3999;SDS011;2014;53.604;10.112;2022-11-20T22:23:23;12.30;;;11.03;;
3999;SDS011;2014;53.604;10.112;2022-11-20T22:25:51;12.23;;;10.87;;
3999;SDS011;2014;53.604;10.112;2022-11-20T22:28:18;13.63;;;10.83;;
3999;SDS011;2014;53.604;10.112;2022-11-20T22:30:46;16.90;;;12.13;;
3999;SDS011;2014;53.604;10.112;2022-11-20T22:33:14;15.77;;;11.90;;
3999;SDS011;2014;53.604;10.112;2022-11-20T22:35:41;12.87;;;10.20;;
3999;SDS011;2014;53.604;10.112;2022-11-20T22:38:08;11.50;;;10.30;;
3999;SDS011;2014;53.604;10.112;2022-11-20T22:40:35;11.67;;;10.47;;
3999;SDS011;2014;53.604;10.112;2022-11-20T22:43:03;14.43;;;10.40;;
3999;SDS011;2014;53.604;10.112;2022-11-20T22:45:30;10.17;;;9.07;;
3999;SDS011;2014;53.604;10.112;2022-11-20T22:47:59;13.30;;;10.80;;
3999;SDS011;2014;53.604;10.112;2022-11-20T22:50:26;11.60;;;10.23;;
3999;SDS011;2014;53.604;10.112;2022-11-20T22:52:53;10.93;;;9.57;;
3999;SDS011;2014;53.604;10.112;2022-11-20T22:55:21;13.80;;;12.30;;
3999;SDS011;2014;53.604;10.112;2022-11-20T22:57:48;12.10;;;10.67;;
3999;SDS011;2014;53.604;10.112;2022-11-20T23:00:16;15.90;;;13.00;;
3999;SDS011;2014;53.604;10.112;2022-11-20T23:02:43;14.13;;;12.10;;
3999;SDS011;2014;53.604;10.112;2022-11-20T23:05:12;14.23;;;11.87;;
3999;SDS011;2014;53.604;10.112;2022-11-20T23:07:39;15.37;;;12.07;;
3999;SDS011;2014;53.604;10.112;2022-11-20T23:10:08;13.80;;;11.53;;
3999;SDS011;2014;53.604;10.112;2022-11-20T23:12:35;13.73;;;11.20;;
3999;SDS011;2014;53.604;10.112;2022-11-20T23:15:03;12.20;;;11.00;;
3999;SDS011;2014;53.604;10.112;2022-11-20T23:17:30;13.63;;;11.77;;
3999;SDS011;2014;53.604;10.112;2022-11-20T23:19:57;12.67;;;11.30;;
3999;SDS011;2014;53.604;10.112;2022-11-20T23:22:26;14.63;;;11.67;;
3999;SDS011;2014;53.604;10.112;2022-11-20T23:24:54;11.60;;;10.17;;
3999;SDS011;2014;53.604;10.112;2022-11-20T23:27:21;16.87;;;12.67;;
3999;SDS011;2014;53.604;10.112;2022-11-20T23:29:48;13.73;;;12.10;;
3999;SDS011;2014;53.604;10.112;2022-11-20T23:32:15;16.97;;;12.13;;
3999;SDS011;2014;53.604;10.112;2022-11-20T23:34:43;11.63;;;10.53;;
3999;SDS011;2014;53.604;10.112;2022-11-20T23:37:10;12.53;;;10.97;;
3999;SDS011;2014;53.604;10.112;2022-11-20T23:39:38;13.00;;;11.67;;
3999;SDS011;2014;53.604;10.112;2022-11-20T23:42:06;15.23;;;12.20;;
3999;SDS011;2014;53.604;10.112;2022-11-20T23:44:33;19.33;;;12.27;;
3999;SDS011;2014;53.604;10.112;2022-11-20T23:47:00;14.97;;;11.50;;
3999;SDS011;2014;53.604;10.112;2022-11-20T23:49:28;15.40;;;11.73;;
3999;SDS011;2014;53.604;10.112;2022-11-20T23:51:55;17.87;;;12.43;;
3999;SDS011;2014;53.604;10.112;2022-11-20T23:54:22;12.40;;;11.10;;
3999;SDS011;2014;53.604;10.112;2022-11-20T23:56:51;16.30;;;11.70;;
3999;SDS011;2014;53.604;10.112;2022-11-20T23:59:18;15.47;;;12.60;;
